sensor_id;sensor_type;location;lat;lon;timestamp;pressure;altitude;pressure_sealevel;temperature;humidity
11314;BME280;5712;48.858;9.206;2023-01-23T00:02:02;99373.09;;;0.37;100.00
11314;BME280;5712;48.858;9.206;2023-01-23T00:04:28;99374.81;;;0.41;100.00
11314;BME280;5712;48.858;9.206;2023-01-23T00:06:55;99367.84;;;0.43;100.00
11314;BME280;5712;48.858;9.206;2023-01-23T00:09:21;99366.13;;;0.42;100.00
11314;BME280;5712;48.858;9.206;2023-01-23T00:11:49;99372.19;;;0.43;100.00
11314;BME280;5712;48.858;9.206;2023-01-23T00:14:16;99366.19;;;0.36;100.00
11314;BME280;5712;48.858;9.206;2023-01-23T00:16:42;99367.06;;;0.37;100.00
11314;BME280;5712;48.858;9.206;2023-01-23T00:19:09;99369.66;;;0.35;100.00
11314;BME280;5712;48.858;9.206;2023-01-23T00:21:36;99363.56;;;0.35;100.00
11314;BME280;5712;48.858;9.206;2023-01-23T00:24:02;99361.88;;;0.32;100.00
11314;BME280;5712;48.858;9.206;2023-01-23T00:26:30;99365.41;;;0.28;100.00
11314;BME280;5712;48.858;9.206;2023-01-23T00:28:59;99363.69;;;0.23;100.00
11314;BME280;5712;48.858;9.206;2023-01-23T00:31:29;99362.84;;;0.19;100.00
11314;BME280;5712;48.858;9.206;2023-01-23T00:33:57;99366.28;;;0.27;100.00
11314;BME280;5712;48.858;9.206;2023-01-23T00:36:27;99367.22;;;0.17;100.00
11314;BME280;5712;48.858;9.206;2023-01-23T00:38:54;99371.59;;;0.12;100.00
11314;BME280;5712;48.858;9.206;2023-01-23T00:41:21;99368.09;;;0.13;100.00
11314;BME280;5712;48.858;9.206;2023-01-23T00:43:47;99362.97;;;0.07;100.00
11314;BME280;5712;48.858;9.206;2023-01-23T00:46:17;99358.63;;;0.08;100.00
11314;BME280;5712;48.858;9.206;2023-01-23T00:48:44;99363.88;;;0.03;100.00
11314;BME280;5712;48.858;9.206;2023-01-23T00:51:10;99368.22;;;0.01;100.00
11314;BME280;5712;48.858;9.206;2023-01-23T00:53:37;99368.19;;;0.04;100.00
11314;BME280;5712;48.858;9.206;2023-01-23T00:56:04;99364.78;;;-0.04;100.00
11314;BME280;5712;48.858;9.206;2023-01-23T00:58:31;99359.56;;;-0.01;100.00
11314;BME280;5712;48.858;9.206;2023-01-23T01:00:58;99363.94;;;-0.03;100.00
11314;BME280;5712;48.858;9.206;2023-01-23T01:03:25;99354.44;;;-0.07;100.00
11314;BME280;5712;48.858;9.206;2023-01-23T01:05:52;99358.78;;;-0.13;100.00
11314;BME280;5712;48.858;9.206;2023-01-23T01:08:19;99365.75;;;-0.15;100.00
11314;BME280;5712;48.858;9.206;2023-01-23T01:10:45;99362.28;;;-0.13;100.00
11314;BME280;5712;48.858;9.206;2023-01-23T01:13:12;99370.03;;;-0.10;100.00
11314;BME280;5712;48.858;9.206;2023-01-23T01:15:41;99367.41;;;-0.08;100.00
11314;BME280;5712;48.858;9.206;2023-01-23T01:18:07;99381.25;;;-0.05;100.00
11314;BME280;5712;48.858;9.206;2023-01-23T01:20:35;99387.22;;;0.06;100.00
11314;BME280;5712;48.858;9.206;2023-01-23T01:23:01;99387.19;;;0.12;100.00
11314;BME280;5712;48.858;9.206;2023-01-23T01:25:29;99383.69;;;0.16;100.00
11314;BME280;5712;48.858;9.206;2023-01-23T01:27:55;99397.53;;;0.18;100.00
11314;BME280;5712;48.858;9.206;2023-01-23T01:30:22;99389.72;;;0.18;100.00
11314;BME280;5712;48.858;9.206;2023-01-23T01:32:49;99401.84;;;0.21;100.00
11314;BME280;5712;48.858;9.206;2023-01-23T01:35:16;99403.53;;;0.28;100.00
11314;BME280;5712;48.858;9.206;2023-01-23T01:37:44;99397.47;;;0.24;100.00
11314;BME280;5712;48.858;9.206;2023-01-23T01:40:13;99406.16;;;0.23;100.00
11314;BME280;5712;48.858;9.206;2023-01-23T01:42:41;99408.66;;;0.35;100.00
11314;BME280;5712;48.858;9.206;2023-01-23T01:48:23;99413.75;;;0.46;100.00
11314;BME280;5712;48.858;9.206;2023-01-23T01:50:50;99407.72;;;0.39;100.00
11314;BME280;5712;48.858;9.206;2023-01-23T01:53:19;99404.28;;;0.40;100.00
11314;BME280;5712;48.858;9.206;2023-01-23T01:55:47;99406.00;;;0.41;100.00
11314;BME280;5712;48.858;9.206;2023-01-23T01:58:13;99399.94;;;0.39;100.00
11314;BME280;5712;48.858;9.206;2023-01-23T02:00:40;99409.50;;;0.37;100.00
11314;BME280;5712;48.858;9.206;2023-01-23T02:03:07;99407.78;;;0.36;100.00
11314;BME280;5712;48.858;9.206;2023-01-23T02:05:36;99404.28;;;0.37;100.00
11314;BME280;5712;48.858;9.206;2023-01-23T02:08:06;99415.53;;;0.42;100.00
11314;BME280;5712;48.858;9.206;2023-01-23T02:10:39;99416.31;;;0.50;100.00
11314;BME280;5712;48.858;9.206;2023-01-23T02:13:23;99417.25;;;0.43;100.00
11314;BME280;5712;48.858;9.206;2023-01-23T02:15:54;99416.34;;;0.49;100.00
11314;BME280;5712;48.858;9.206;2023-01-23T02:18:22;99408.44;;;0.56;100.00
11314;BME280;5712;48.858;9.206;2023-01-23T02:20:50;99411.16;;;0.47;100.00
11314;BME280;5712;48.858;9.206;2023-01-23T02:23:25;99410.28;;;0.48;100.00
11314;BME280;5712;48.858;9.206;2023-01-23T02:25:57;99405.13;;;0.42;100.00
11314;BME280;5712;48.858;9.206;2023-01-23T02:28:36;99410.31;;;0.42;100.00
11314;BME280;5712;48.858;9.206;2023-01-23T02:31:03;99406.84;;;0.45;100.00
11314;BME280;5712;48.858;9.206;2023-01-23T02:33:46;99409.44;;;0.43;100.00
11314;BME280;5712;48.858;9.206;2023-01-23T02:36:13;99404.25;;;0.43;100.00
11314;BME280;5712;48.858;9.206;2023-01-23T02:38:46;99400.81;;;0.40;100.00
11314;BME280;5712;48.858;9.206;2023-01-23T02:41:17;99397.28;;;0.45;100.00
11314;BME280;5712;48.858;9.206;2023-01-23T02:43:47;99400.81;;;0.38;100.00
11314;BME280;5712;48.858;9.206;2023-01-23T02:46:15;99402.53;;;0.42;100.00
11314;BME280;5712;48.858;9.206;2023-01-23T02:48:44;99410.31;;;0.42;100.00
11314;BME280;5712;48.858;9.206;2023-01-23T02:51:11;99407.78;;;0.33;100.00
11314;BME280;5712;48.858;9.206;2023-01-23T02:53:38;99408.59;;;0.40;100.00
11314;BME280;5712;48.858;9.206;2023-01-23T02:56:06;99403.41;;;0.43;100.00
11314;BME280;5712;48.858;9.206;2023-01-23T02:58:34;99400.81;;;0.41;100.00
11314;BME280;5712;48.858;9.206;2023-01-23T03:01:19;99404.28;;;0.40;100.00
11314;BME280;5712;48.858;9.206;2023-01-23T03:03:45;99403.41;;;0.40;100.00
11314;BME280;5712;48.858;9.206;2023-01-23T03:06:15;99411.22;;;0.41;100.00
11314;BME280;5712;48.858;9.206;2023-01-23T03:08:42;99421.59;;;0.41;100.00
11314;BME280;5712;48.858;9.206;2023-01-23T03:11:14;99414.69;;;0.40;100.00
11314;BME280;5712;48.858;9.206;2023-01-23T03:13:42;99417.25;;;0.45;100.00
11314;BME280;5712;48.858;9.206;2023-01-23T03:16:09;99406.84;;;0.46;100.00
11314;BME280;5712;48.858;9.206;2023-01-23T03:18:36;99407.72;;;0.42;100.00
11314;BME280;5712;48.858;9.206;2023-01-23T03:21:03;99411.16;;;0.44;100.00
11314;BME280;5712;48.858;9.206;2023-01-23T03:23:30;99410.31;;;0.44;100.00
11314;BME280;5712;48.858;9.206;2023-01-23T03:25:56;99412.94;;;0.42;100.00
11314;BME280;5712;48.858;9.206;2023-01-23T03:28:23;99413.81;;;0.41;100.00
11314;BME280;5712;48.858;9.206;2023-01-23T03:31:09;99411.22;;;0.41;100.00
11314;BME280;5712;48.858;9.206;2023-01-23T03:33:35;99412.03;;;0.45;100.00
11314;BME280;5712;48.858;9.206;2023-01-23T03:36:03;99411.16;;;0.47;100.00
11314;BME280;5712;48.858;9.206;2023-01-23T03:38:30;99405.06;;;0.45;100.00
11314;BME280;5712;48.858;9.206;2023-01-23T03:40:56;99401.66;;;0.43;100.00
11314;BME280;5712;48.858;9.206;2023-01-23T03:43:40;99397.22;;;0.51;100.00
11314;BME280;5712;48.858;9.206;2023-01-23T03:46:08;99400.75;;;0.46;100.00
11314;BME280;5712;48.858;9.206;2023-01-23T03:48:35;99389.53;;;0.42;100.00
11314;BME280;5712;48.858;9.206;2023-01-23T03:51:01;99394.72;;;0.44;100.00
11314;BME280;5712;48.858;9.206;2023-01-23T03:53:28;99406.78;;;0.48;100.00
11314;BME280;5712;48.858;9.206;2023-01-23T03:55:54;99405.88;;;0.55;100.00
11314;BME280;5712;48.858;9.206;2023-01-23T03:58:21;99398.16;;;0.46;100.00
11314;BME280;5712;48.858;9.206;2023-01-23T04:00:47;99411.19;;;0.43;100.00
11314;BME280;5712;48.858;9.206;2023-01-23T04:03:15;99404.22;;;0.46;100.00
11314;BME280;5712;48.858;9.206;2023-01-23T04:05:42;99399.81;;;0.53;100.00
11314;BME280;5712;48.858;9.206;2023-01-23T04:08:08;99408.56;;;0.47;100.00
11314;BME280;5712;48.858;9.206;2023-01-23T04:10:35;99406.00;;;0.41;100.00
11314;BME280;5712;48.858;9.206;2023-01-23T04:13:02;99406.75;;;0.54;100.00
11314;BME280;5712;48.858;9.206;2023-01-23T04:15:30;99408.53;;;0.49;100.00
11314;BME280;5712;48.858;9.206;2023-01-23T04:17:57;99419.78;;;0.52;100.00
11314;BME280;5712;48.858;9.206;2023-01-23T04:20:25;99418.91;;;0.52;100.00
11314;BME280;5712;48.858;9.206;2023-01-23T04:22:51;99425.94;;;0.42;100.00
11314;BME280;5712;48.858;9.206;2023-01-23T04:25:18;99424.19;;;0.43;100.00
11314;BME280;5712;48.858;9.206;2023-01-23T04:27:44;99425.88;;;0.47;100.00
11314;BME280;5712;48.858;9.206;2023-01-23T04:30:11;99437.22;;;0.41;100.00
11314;BME280;5712;48.858;9.206;2023-01-23T04:32:38;99438.09;;;0.37;100.00
11314;BME280;5712;48.858;9.206;2023-01-23T04:35:05;99448.50;;;0.39;100.00
11314;BME280;5712;48.858;9.206;2023-01-23T04:37:33;99442.47;;;0.35;100.00
11314;BME280;5712;48.858;9.206;2023-01-23T04:42:28;99447.66;;;0.32;100.00
11314;BME280;5712;48.858;9.206;2023-01-23T04:44:55;99442.47;;;0.32;100.00
11314;BME280;5712;48.858;9.206;2023-01-23T04:47:21;99448.56;;;0.33;100.00
11314;BME280;5712;48.858;9.206;2023-01-23T04:49:48;99444.19;;;0.33;100.00
11314;BME280;5712;48.858;9.206;2023-01-23T04:52:14;99447.66;;;0.35;100.00
11314;BME280;5712;48.858;9.206;2023-01-23T04:54:42;99458.06;;;0.37;100.00
11314;BME280;5712;48.858;9.206;2023-01-23T04:57:08;99449.34;;;0.39;100.00
11314;BME280;5712;48.858;9.206;2023-01-23T04:59:35;99457.09;;;0.48;100.00
11314;BME280;5712;48.858;9.206;2023-01-23T05:02:01;99448.44;;;0.46;100.00
11314;BME280;5712;48.858;9.206;2023-01-23T05:04:28;99455.31;;;0.52;100.00
11314;BME280;5712;48.858;9.206;2023-01-23T05:06:54;99444.09;;;0.45;100.00
11314;BME280;5712;48.858;9.206;2023-01-23T05:09:21;99454.50;;;0.45;100.00
11314;BME280;5712;48.858;9.206;2023-01-23T05:11:48;99450.13;;;0.52;100.00
11314;BME280;5712;48.858;9.206;2023-01-23T05:14:15;99445.78;;;0.52;100.00
11314;BME280;5712;48.858;9.206;2023-01-23T05:16:41;99447.50;;;0.53;100.00
11314;BME280;5712;48.858;9.206;2023-01-23T05:19:08;99457.03;;;0.53;100.00
11314;BME280;5712;48.858;9.206;2023-01-23T05:21:34;99445.75;;;0.58;100.00
11314;BME280;5712;48.858;9.206;2023-01-23T05:24:01;99450.09;;;0.55;100.00
11314;BME280;5712;48.858;9.206;2023-01-23T05:26:27;99447.41;;;0.62;100.00
11314;BME280;5712;48.858;9.206;2023-01-23T05:28:55;99457.81;;;0.62;100.00
11314;BME280;5712;48.858;9.206;2023-01-23T05:31:22;99462.19;;;0.62;100.00
11314;BME280;5712;48.858;9.206;2023-01-23T05:33:48;99452.66;;;0.59;100.00
11314;BME280;5712;48.858;9.206;2023-01-23T05:36:15;99457.81;;;0.62;100.00
11314;BME280;5712;48.858;9.206;2023-01-23T05:38:41;99448.34;;;0.54;100.00
11314;BME280;5712;48.858;9.206;2023-01-23T05:41:08;99450.94;;;0.55;100.00
11314;BME280;5712;48.858;9.206;2023-01-23T05:43:34;99450.94;;;0.58;100.00
11314;BME280;5712;48.858;9.206;2023-01-23T05:46:02;99448.41;;;0.51;100.00
11314;BME280;5712;48.858;9.206;2023-01-23T05:48:29;99457.94;;;0.50;100.00
11314;BME280;5712;48.858;9.206;2023-01-23T05:50:55;99461.38;;;0.54;100.00
11314;BME280;5712;48.858;9.206;2023-01-23T05:53:22;99450.94;;;0.58;100.00
11314;BME280;5712;48.858;9.206;2023-01-23T05:55:48;99446.53;;;0.63;100.00
11314;BME280;5712;48.858;9.206;2023-01-23T05:58:15;99452.63;;;0.62;100.00
11314;BME280;5712;48.858;9.206;2023-01-23T06:00:41;99461.28;;;0.64;100.00
11314;BME280;5712;48.858;9.206;2023-01-23T06:03:09;99458.75;;;0.54;100.00
11314;BME280;5712;48.858;9.206;2023-01-23T06:05:36;99464.84;;;0.54;100.00
11314;BME280;5712;48.858;9.206;2023-01-23T06:08:02;99468.28;;;0.59;100.00
11314;BME280;5712;48.858;9.206;2023-01-23T06:10:29;99464.78;;;0.57;100.00
11314;BME280;5712;48.858;9.206;2023-01-23T06:12:55;99468.31;;;0.53;100.00
11314;BME280;5712;48.858;9.206;2023-01-23T06:15:22;99467.44;;;0.53;100.00
11314;BME280;5712;48.858;9.206;2023-01-23T06:17:48;99470.00;;;0.60;100.00
11314;BME280;5712;48.858;9.206;2023-01-23T06:20:16;99471.69;;;0.64;100.00
11314;BME280;5712;48.858;9.206;2023-01-23T06:22:43;99474.31;;;0.60;100.00
11314;BME280;5712;48.858;9.206;2023-01-23T06:25:09;99471.75;;;0.55;100.00
11314;BME280;5712;48.858;9.206;2023-01-23T06:27:36;99477.78;;;0.60;100.00
11314;BME280;5712;48.858;9.206;2023-01-23T06:30:03;99481.28;;;0.56;100.00
11314;BME280;5712;48.858;9.206;2023-01-23T06:32:30;99478.69;;;0.56;100.00
11314;BME280;5712;48.858;9.206;2023-01-23T06:34:56;99487.38;;;0.55;100.00
11314;BME280;5712;48.858;9.206;2023-01-23T06:37:24;99494.28;;;0.59;100.00
11314;BME280;5712;48.858;9.206;2023-01-23T06:39:51;99499.50;;;0.58;100.00
11314;BME280;5712;48.858;9.206;2023-01-23T06:42:17;99500.41;;;0.52;100.00
11314;BME280;5712;48.858;9.206;2023-01-23T06:44:44;99504.75;;;0.50;100.00
11314;BME280;5712;48.858;9.206;2023-01-23T06:47:10;99514.25;;;0.54;100.00
11314;BME280;5712;48.858;9.206;2023-01-23T06:49:37;99516.81;;;0.60;100.00
11314;BME280;5712;48.858;9.206;2023-01-23T06:52:04;99516.81;;;0.57;100.00
11314;BME280;5712;48.858;9.206;2023-01-23T06:54:33;99523.78;;;0.57;100.00
11314;BME280;5712;48.858;9.206;2023-01-23T06:57:00;99523.78;;;0.55;100.00
11314;BME280;5712;48.858;9.206;2023-01-23T06:59:26;99530.72;;;0.56;100.00
11314;BME280;5712;48.858;9.206;2023-01-23T07:01:53;99534.22;;;0.51;100.00
11314;BME280;5712;48.858;9.206;2023-01-23T07:04:19;99530.75;;;0.53;100.00
11314;BME280;5712;48.858;9.206;2023-01-23T07:06:46;99535.94;;;0.53;100.00
11314;BME280;5712;48.858;9.206;2023-01-23T07:09:12;99533.34;;;0.55;100.00
11314;BME280;5712;48.858;9.206;2023-01-23T07:11:40;99540.28;;;0.54;100.00
11314;BME280;5712;48.858;9.206;2023-01-23T07:14:07;99548.03;;;0.57;100.00
11314;BME280;5712;48.858;9.206;2023-01-23T07:16:33;99539.44;;;0.49;100.00
11314;BME280;5712;48.858;9.206;2023-01-23T07:19:00;99545.47;;;0.54;100.00
11314;BME280;5712;48.858;9.206;2023-01-23T07:21:28;99549.84;;;0.51;100.00
11314;BME280;5712;48.858;9.206;2023-01-23T07:23:54;99558.47;;;0.51;100.00
11314;BME280;5712;48.858;9.206;2023-01-23T07:26:21;99554.16;;;0.50;100.00
11314;BME280;5712;48.858;9.206;2023-01-23T07:28:49;99554.13;;;0.58;100.00
11314;BME280;5712;48.858;9.206;2023-01-23T07:31:15;99558.47;;;0.56;100.00
11314;BME280;5712;48.858;9.206;2023-01-23T07:33:42;99561.91;;;0.56;100.00
11314;BME280;5712;48.858;9.206;2023-01-23T07:36:09;99566.28;;;0.56;100.00
11314;BME280;5712;48.858;9.206;2023-01-23T07:38:38;99563.69;;;0.54;100.00
11314;BME280;5712;48.858;9.206;2023-01-23T07:41:04;99561.09;;;0.54;100.00
11314;BME280;5712;48.858;9.206;2023-01-23T07:43:31;99563.66;;;0.57;100.00
11314;BME280;5712;48.858;9.206;2023-01-23T07:45:59;99566.28;;;0.54;100.00
11314;BME280;5712;48.858;9.206;2023-01-23T07:48:25;99563.69;;;0.53;100.00
11314;BME280;5712;48.858;9.206;2023-01-23T07:50:53;99557.59;;;0.58;100.00
11314;BME280;5712;48.858;9.206;2023-01-23T07:53:20;99555.78;;;0.66;100.00
11314;BME280;5712;48.858;9.206;2023-01-23T07:55:46;99554.91;;;0.70;100.00
11314;BME280;5712;48.858;9.206;2023-01-23T07:58:13;99561.84;;;0.68;100.00
11314;BME280;5712;48.858;9.206;2023-01-23T08:00:39;99555.69;;;0.75;100.00
11314;BME280;5712;48.858;9.206;2023-01-23T08:03:08;99553.09;;;0.75;100.00
11314;BME280;5712;48.858;9.206;2023-01-23T08:05:34;99567.00;;;0.74;100.00
11314;BME280;5712;48.858;9.206;2023-01-23T08:08:01;99553.13;;;0.72;100.00
11314;BME280;5712;48.858;9.206;2023-01-23T08:10:27;99560.13;;;0.69;100.00
11314;BME280;5712;48.858;9.206;2023-01-23T08:12:54;99565.22;;;0.79;100.00
11314;BME280;5712;48.858;9.206;2023-01-23T08:15:20;99555.66;;;0.84;100.00
11314;BME280;5712;48.858;9.206;2023-01-23T08:17:47;99554.81;;;0.78;100.00
11314;BME280;5712;48.858;9.206;2023-01-23T08:20:15;99561.69;;;0.89;100.00
11314;BME280;5712;48.858;9.206;2023-01-23T08:22:41;99540.81;;;0.92;100.00
11314;BME280;5712;48.858;9.206;2023-01-23T08:25:08;99552.06;;;0.96;100.00
11314;BME280;5712;48.858;9.206;2023-01-23T08:27:36;99553.81;;;0.95;100.00
11314;BME280;5712;48.858;9.206;2023-01-23T08:30:03;99552.00;;;1.00;100.00
11314;BME280;5712;48.858;9.206;2023-01-23T08:32:30;99549.41;;;1.02;100.00
11314;BME280;5712;48.858;9.206;2023-01-23T08:34:56;99552.94;;;0.93;100.00
11314;BME280;5712;48.858;9.206;2023-01-23T08:37:25;99558.16;;;0.95;100.00
11314;BME280;5712;48.858;9.206;2023-01-23T08:39:51;99547.75;;;0.93;100.00
11314;BME280;5712;48.858;9.206;2023-01-23T08:42:18;99544.25;;;0.97;100.00
11314;BME280;5712;48.858;9.206;2023-01-23T08:44:44;99545.13;;;0.98;100.00
11314;BME280;5712;48.858;9.206;2023-01-23T08:47:11;99545.19;;;0.92;100.00
11314;BME280;5712;48.858;9.206;2023-01-23T08:49:37;99544.25;;;0.99;100.00
11314;BME280;5712;48.858;9.206;2023-01-23T08:52:03;99544.19;;;1.03;100.00
11314;BME280;5712;48.858;9.206;2023-01-23T08:54:31;99530.28;;;1.04;100.00
11314;BME280;5712;48.858;9.206;2023-01-23T08:56:58;99532.88;;;1.06;100.00
11314;BME280;5712;48.858;9.206;2023-01-23T08:59:25;99532.94;;;1.01;100.00
11314;BME280;5712;48.858;9.206;2023-01-23T09:01:51;99533.78;;;1.02;100.00
11314;BME280;5712;48.858;9.206;2023-01-23T09:04:18;99529.41;;;1.05;100.00
11314;BME280;5712;48.858;9.206;2023-01-23T09:06:44;99530.28;;;1.04;100.00
11314;BME280;5712;48.858;9.206;2023-01-23T09:09:11;99525.09;;;1.04;100.00
11314;BME280;5712;48.858;9.206;2023-01-23T09:11:39;99532.03;;;1.05;100.00
11314;BME280;5712;48.858;9.206;2023-01-23T09:14:05;99539.81;;;1.10;100.00
11314;BME280;5712;48.858;9.206;2023-01-23T09:16:32;99542.25;;;1.25;100.00
11314;BME280;5712;48.858;9.206;2023-01-23T09:18:58;99522.22;;;1.31;100.00
11314;BME280;5712;48.858;9.206;2023-01-23T09:21:25;99517.78;;;1.39;100.00
11314;BME280;5712;48.858;9.206;2023-01-23T09:23:51;99513.47;;;1.38;100.00
11314;BME280;5712;48.858;9.206;2023-01-23T09:26:18;99517.81;;;1.36;100.00
11314;BME280;5712;48.858;9.206;2023-01-23T09:28:45;99525.63;;;1.38;100.00
11314;BME280;5712;48.858;9.206;2023-01-23T09:31:13;99536.03;;;1.39;100.00
11314;BME280;5712;48.858;9.206;2023-01-23T09:33:39;99524.78;;;1.37;100.00
11314;BME280;5712;48.858;9.206;2023-01-23T09:36:07;99523.00;;;1.39;100.00
11314;BME280;5712;48.858;9.206;2023-01-23T09:38:34;99537.81;;;1.34;100.00
11314;BME280;5712;48.858;9.206;2023-01-23T09:41:07;99520.47;;;1.33;100.00
11314;BME280;5712;48.858;9.206;2023-01-23T09:43:38;99520.47;;;1.30;100.00
11314;BME280;5712;48.858;9.206;2023-01-23T09:46:15;99530.13;;;1.22;100.00
11314;BME280;5712;48.858;9.206;2023-01-23T09:48:46;99538.81;;;1.23;100.00
11314;BME280;5712;48.858;9.206;2023-01-23T09:51:19;99537.09;;;1.20;100.00
11314;BME280;5712;48.858;9.206;2023-01-23T09:53:47;99524.13;;;1.14;100.00
11314;BME280;5712;48.858;9.206;2023-01-23T09:56:27;99533.63;;;1.18;100.00
11314;BME280;5712;48.858;9.206;2023-01-23T09:59:11;99525.84;;;1.15;100.00
11314;BME280;5712;48.858;9.206;2023-01-23T10:01:40;99540.59;;;1.16;100.00
11314;BME280;5712;48.858;9.206;2023-01-23T10:04:09;99532.78;;;1.16;100.00
11314;BME280;5712;48.858;9.206;2023-01-23T10:06:51;99539.72;;;1.17;100.00
11314;BME280;5712;48.858;9.206;2023-01-23T10:09:29;99542.25;;;1.23;100.00
11314;BME280;5712;48.858;9.206;2023-01-23T10:12:02;99543.97;;;1.24;100.00
11314;BME280;5712;48.858;9.206;2023-01-23T10:14:45;99544.78;;;1.32;100.00
11314;BME280;5712;48.858;9.206;2023-01-23T10:17:24;99531.66;;;1.41;100.00
11314;BME280;5712;48.858;9.206;2023-01-23T10:20:05;99536.78;;;1.47;100.00
11314;BME280;5712;48.858;9.206;2023-01-23T10:22:38;99542.94;;;1.43;99.73
11314;BME280;5712;48.858;9.206;2023-01-23T10:25:12;99542.06;;;1.41;100.00
11314;BME280;5712;48.858;9.206;2023-01-23T10:27:44;99536.91;;;1.38;100.00
11314;BME280;5712;48.858;9.206;2023-01-23T10:30:21;99528.22;;;1.39;99.71
11314;BME280;5712;48.858;9.206;2023-01-23T10:32:55;99523.84;;;1.40;99.66
11314;BME280;5712;48.858;9.206;2023-01-23T10:35:28;99535.06;;;1.46;99.41
11314;BME280;5712;48.858;9.206;2023-01-23T10:38:00;99539.31;;;1.55;99.80
11314;BME280;5712;48.858;9.206;2023-01-23T10:40:28;99526.34;;;1.50;99.67
11314;BME280;5712;48.858;9.206;2023-01-23T10:43:15;99533.28;;;1.51;100.00
11314;BME280;5712;48.858;9.206;2023-01-23T10:45:42;99528.91;;;1.52;100.00
11314;BME280;5712;48.858;9.206;2023-01-23T10:48:43;99533.34;;;1.47;99.97
11314;BME280;5712;48.858;9.206;2023-01-23T10:51:43;99529.78;;;1.55;100.00
11314;BME280;5712;48.858;9.206;2023-01-23T10:54:14;99526.22;;;1.59;100.00
11314;BME280;5712;48.858;9.206;2023-01-23T10:56:55;99534.88;;;1.63;100.00
11314;BME280;5712;48.858;9.206;2023-01-23T10:59:30;99527.84;;;1.69;99.62
11314;BME280;5712;48.858;9.206;2023-01-23T11:02:02;99526.22;;;1.62;100.00
11314;BME280;5712;48.858;9.206;2023-01-23T11:04:34;99531.44;;;1.62;100.00
11314;BME280;5712;48.858;9.206;2023-01-23T11:07:05;99529.66;;;1.64;99.62
11314;BME280;5712;48.858;9.206;2023-01-23T11:09:44;99509.69;;;1.63;99.06
11314;BME280;5712;48.858;9.206;2023-01-23T11:12:15;99507.94;;;1.64;98.73
11314;BME280;5712;48.858;9.206;2023-01-23T11:14:41;99514.00;;;1.64;98.54
11314;BME280;5712;48.858;9.206;2023-01-23T11:17:18;99499.19;;;1.69;97.36
11314;BME280;5712;48.858;9.206;2023-01-23T11:19:48;99491.38;;;1.69;97.75
11314;BME280;5712;48.858;9.206;2023-01-23T11:22:27;99483.41;;;1.81;97.24
11314;BME280;5712;48.858;9.206;2023-01-23T11:24:54;99482.44;;;1.85;97.00
11314;BME280;5712;48.858;9.206;2023-01-23T11:27:22;99481.53;;;1.89;96.91
11314;BME280;5712;48.858;9.206;2023-01-23T11:30:21;99463.22;;;1.95;95.72
11314;BME280;5712;48.858;9.206;2023-01-23T11:32:53;99451.88;;;1.98;94.40
11314;BME280;5712;48.858;9.206;2023-01-23T11:35:27;99469.25;;;1.97;95.18
11314;BME280;5712;48.858;9.206;2023-01-23T11:37:56;99470.13;;;1.99;95.81
11314;BME280;5712;48.858;9.206;2023-01-23T11:40:23;99459.69;;;1.99;95.30
11314;BME280;5712;48.858;9.206;2023-01-23T11:42:50;99459.63;;;2.01;95.45
11314;BME280;5712;48.858;9.206;2023-01-23T11:45:31;99456.19;;;2.00;94.44
11314;BME280;5712;48.858;9.206;2023-01-23T11:48:08;99451.06;;;1.94;94.23
11314;BME280;5712;48.858;9.206;2023-01-23T11:50:41;99454.56;;;1.93;94.79
11314;BME280;5712;48.858;9.206;2023-01-23T11:53:19;99447.66;;;1.89;95.25
11314;BME280;5712;48.858;9.206;2023-01-23T11:55:57;99444.16;;;1.90;95.59
11314;BME280;5712;48.858;9.206;2023-01-23T12:01:32;99451.91;;;1.95;95.93
11314;BME280;5712;48.858;9.206;2023-01-23T12:07:06;99449.13;;;2.07;96.11
11314;BME280;5712;48.858;9.206;2023-01-23T12:09:43;99458.56;;;2.15;95.19
11314;BME280;5712;48.858;9.206;2023-01-23T12:12:19;99453.31;;;2.18;95.22
11314;BME280;5712;48.858;9.206;2023-01-23T12:14:56;99450.63;;;2.21;94.36
11314;BME280;5712;48.858;9.206;2023-01-23T12:17:33;99451.59;;;2.16;94.45
11314;BME280;5712;48.858;9.206;2023-01-23T12:26:14;99441.31;;;2.07;94.79
11314;BME280;5712;48.858;9.206;2023-01-23T12:29:05;99442.09;;;2.12;95.10
11314;BME280;5712;48.858;9.206;2023-01-23T12:31:42;99430.75;;;2.14;95.59
11314;BME280;5712;48.858;9.206;2023-01-23T12:34:26;99432.47;;;2.15;96.01
11314;BME280;5712;48.858;9.206;2023-01-23T12:37:22;99416.69;;;2.26;95.34
11314;BME280;5712;48.858;9.206;2023-01-23T12:39:59;99414.91;;;2.26;95.17
11314;BME280;5712;48.858;9.206;2023-01-23T12:42:38;99402.50;;;2.40;94.76
11314;BME280;5712;48.858;9.206;2023-01-23T12:45:13;99384.13;;;2.46;94.10
11314;BME280;5712;48.858;9.206;2023-01-23T12:47:49;99389.25;;;2.52;94.07
11314;BME280;5712;48.858;9.206;2023-01-23T12:50:20;99389.22;;;2.54;94.13
11314;BME280;5712;48.858;9.206;2023-01-23T12:52:50;99379.59;;;2.57;93.30
11314;BME280;5712;48.858;9.206;2023-01-23T12:55:20;99381.28;;;2.60;94.32
11314;BME280;5712;48.858;9.206;2023-01-23T12:57:52;99384.88;;;2.54;94.73
11314;BME280;5712;48.858;9.206;2023-01-23T13:00:28;99386.63;;;2.54;94.37
11314;BME280;5712;48.858;9.206;2023-01-23T13:03:08;99384.03;;;2.52;94.64
11314;BME280;5712;48.858;9.206;2023-01-23T13:05:44;99389.22;;;2.54;95.60
11314;BME280;5712;48.858;9.206;2023-01-23T13:08:20;99385.69;;;2.58;95.26
11314;BME280;5712;48.858;9.206;2023-01-23T13:11:00;99376.06;;;2.61;94.11
11314;BME280;5712;48.858;9.206;2023-01-23T13:13:47;99374.38;;;2.57;93.97
11314;BME280;5712;48.858;9.206;2023-01-23T13:16:15;99379.47;;;2.65;94.46
11314;BME280;5712;48.858;9.206;2023-01-23T13:18:52;99380.38;;;2.62;94.21
11314;BME280;5712;48.858;9.206;2023-01-23T13:21:36;99382.16;;;2.60;94.84
11314;BME280;5712;48.858;9.206;2023-01-23T13:24:29;99385.56;;;2.65;95.02
11314;BME280;5712;48.858;9.206;2023-01-23T13:27:37;99378.38;;;2.76;94.39
11314;BME280;5712;48.858;9.206;2023-01-23T13:30:35;99380.13;;;2.77;94.31
11314;BME280;5712;48.858;9.206;2023-01-23T13:36:28;99383.31;;;2.91;93.38
11314;BME280;5712;48.858;9.206;2023-01-23T13:39:03;99388.53;;;2.91;93.87
11314;BME280;5712;48.858;9.206;2023-01-23T13:41:32;99382.44;;;2.92;93.23
11314;BME280;5712;48.858;9.206;2023-01-23T13:44:03;99383.31;;;2.91;93.87
11314;BME280;5712;48.858;9.206;2023-01-23T13:46:45;99380.72;;;2.91;93.04
11314;BME280;5712;48.858;9.206;2023-01-23T13:49:22;99387.66;;;2.92;93.17